createdAt,value
2019-04-01T00:01:59.352Z,15.15
2019-04-01T00:04:27.111Z,12.23
2019-04-01T00:06:53.543Z,13.10
2019-04-01T00:09:19.997Z,14.55
2019-04-01T00:11:46.453Z,12.43
2019-04-01T00:14:12.921Z,9.18
2019-04-01T00:16:39.409Z,7.50
2019-04-01T00:19:05.887Z,9.93
2019-04-01T00:21:32.319Z,7.58
2019-04-01T00:23:58.858Z,8.48
2019-04-01T00:26:25.316Z,11.22
2019-04-01T00:28:52.841Z,8.85
2019-04-01T00:31:19.267Z,13.35
2019-04-01T00:33:45.698Z,11.65
2019-04-01T00:36:12.137Z,7.87
2019-04-01T00:38:38.578Z,9.43
2019-04-01T00:41:05.131Z,10.53
2019-04-01T00:43:39.450Z,10.00
2019-04-01T00:46:05.996Z,10.10
2019-04-01T00:48:32.462Z,8.95
2019-04-01T00:50:58.895Z,8.90
2019-04-01T00:53:25.317Z,8.53
2019-04-01T00:55:51.747Z,7.00
2019-04-01T00:58:18.205Z,7.60
2019-04-01T01:00:44.644Z,8.15
2019-04-01T01:03:11.878Z,14.73
2019-04-01T01:05:38.339Z,13.60
2019-04-01T01:08:04.804Z,13.18
2019-04-01T01:10:31.375Z,13.72
2019-04-01T01:12:58.912Z,12.70
2019-04-01T01:15:25.580Z,11.88
2019-04-01T01:17:52.043Z,12.68
2019-04-01T01:20:18.498Z,13.62
2019-04-01T01:22:44.969Z,10.90
2019-04-01T01:25:11.949Z,9.53
2019-04-01T01:27:38.405Z,8.63
2019-04-01T01:30:05.388Z,9.30
2019-04-01T01:32:31.826Z,7.90
2019-04-01T01:34:58.296Z,9.35
2019-04-01T01:37:27.932Z,6.97
2019-04-01T01:39:55.634Z,9.33
2019-04-01T01:42:22.017Z,8.80
2019-04-01T01:44:48.488Z,7.85
2019-04-01T01:47:14.945Z,8.10
2019-04-01T01:49:41.425Z,9.50
2019-04-01T01:52:07.877Z,12.43
2019-04-01T01:54:34.351Z,10.10
2019-04-01T01:57:00.775Z,7.85
2019-04-01T01:59:27.211Z,9.25
2019-04-01T02:01:54.713Z,8.95
2019-04-01T02:04:21.176Z,9.18
2019-04-01T02:06:47.617Z,10.05
2019-04-01T02:09:14.053Z,9.30
2019-04-01T02:11:40.485Z,8.85
2019-04-01T02:14:08.136Z,11.70
2019-04-01T02:16:34.600Z,11.15
2019-04-01T02:19:01.157Z,11.65
2019-04-01T02:21:27.652Z,12.58
2019-04-01T02:23:54.121Z,11.70
2019-04-01T02:26:20.554Z,11.50
2019-04-01T02:28:47.006Z,12.18
2019-04-01T02:31:13.463Z,12.75
2019-04-01T02:33:39.969Z,13.28
2019-04-01T02:36:06.428Z,15.05
2019-04-01T02:38:32.883Z,13.45
2019-04-01T02:40:59.313Z,13.18
2019-04-01T02:43:25.759Z,10.58
2019-04-01T02:45:52.201Z,11.73
2019-04-01T02:48:18.671Z,12.30
2019-04-01T02:50:45.125Z,10.08
2019-04-01T02:53:11.582Z,10.25
2019-04-01T02:55:38.025Z,11.50
2019-04-01T02:58:04.483Z,11.00
2019-04-01T03:00:30.941Z,9.73
2019-04-01T03:02:57.401Z,10.40
2019-04-01T03:05:24.026Z,9.68
2019-04-01T03:07:50.492Z,11.43
2019-04-01T03:10:16.935Z,13.60
2019-04-01T03:12:43.403Z,12.47
2019-04-01T03:15:09.943Z,12.03
2019-04-01T03:17:36.398Z,11.70
2019-04-01T03:20:05.263Z,12.15
2019-04-01T03:22:31.855Z,11.60
2019-04-01T03:24:58.281Z,11.45
2019-04-01T03:27:24.834Z,11.45
2019-04-01T03:29:51.388Z,11.15
2019-04-01T03:32:17.875Z,11.65
2019-04-01T03:34:44.395Z,11.70
2019-04-01T03:37:10.902Z,10.95
2019-04-01T03:39:37.347Z,10.25
2019-04-01T03:42:03.909Z,10.55
2019-04-01T03:44:30.358Z,9.28
2019-04-01T03:46:56.797Z,9.80
2019-04-01T03:49:23.240Z,10.70
2019-04-01T03:51:49.697Z,10.25
2019-04-01T03:54:16.134Z,9.93
2019-04-01T03:56:42.587Z,9.90
2019-04-01T03:59:09.035Z,9.38
2019-04-01T04:01:35.488Z,11.05
2019-04-01T04:04:01.920Z,10.98
2019-04-01T04:06:28.559Z,10.75
2019-04-01T04:08:55.089Z,8.70
2019-04-01T04:11:21.707Z,10.10
2019-04-01T04:13:48.174Z,11.18
2019-04-01T04:16:14.714Z,10.72
2019-04-01T04:18:41.181Z,11.65
2019-04-01T04:21:07.760Z,10.48
2019-04-01T04:23:34.220Z,12.25
2019-04-01T04:26:00.696Z,11.90
2019-04-01T04:28:27.169Z,11.18
2019-04-01T04:30:53.722Z,11.75
2019-04-01T04:33:20.175Z,11.48
2019-04-01T04:35:46.636Z,12.00
2019-04-01T04:38:13.180Z,11.57
2019-04-01T04:40:41.030Z,12.68
2019-04-01T04:43:07.818Z,11.35
2019-04-01T04:45:34.385Z,11.50
2019-04-01T04:48:00.929Z,10.95
2019-04-01T04:50:27.486Z,11.75
2019-04-01T04:52:53.940Z,11.70
2019-04-01T04:55:20.480Z,11.93
2019-04-01T04:57:46.918Z,12.03
2019-04-01T05:00:13.663Z,13.85
2019-04-01T05:02:40.120Z,15.32
2019-04-01T05:05:06.875Z,17.55
2019-04-01T05:07:34.261Z,13.45
2019-04-01T05:10:00.924Z,13.62
2019-04-01T05:12:29.325Z,14.13
2019-04-01T05:14:59.663Z,13.98
2019-04-01T05:17:26.097Z,13.68
2019-04-01T05:19:54.260Z,13.00
2019-04-01T05:22:20.802Z,11.63
2019-04-01T05:24:47.745Z,16.85
2019-04-01T05:27:16.695Z,17.42
2019-04-01T05:29:44.987Z,16.20
2019-04-01T05:32:11.875Z,17.75
2019-04-01T05:34:40.866Z,14.38
2019-04-01T05:37:09.112Z,15.13
2019-04-01T05:39:35.650Z,14.50
2019-04-01T05:42:04.098Z,14.15
2019-04-01T05:44:30.697Z,15.58
2019-04-01T05:46:57.279Z,14.80
2019-04-01T05:49:23.953Z,14.15
2019-04-01T05:51:50.580Z,14.55
2019-04-01T05:54:17.433Z,15.08
2019-04-01T05:56:43.880Z,14.55
2019-04-01T05:59:10.441Z,13.68
2019-04-01T06:01:41.680Z,11.45
2019-04-01T06:04:08.259Z,11.53
2019-04-01T06:06:34.822Z,11.38
2019-04-01T06:09:01.385Z,12.40
2019-04-01T06:11:29.343Z,10.43
2019-04-01T06:13:55.970Z,11.38
2019-04-01T06:16:22.636Z,12.35
2019-04-01T06:18:49.085Z,12.63
2019-04-01T06:21:15.555Z,12.73
2019-04-01T06:23:42.045Z,13.90
2019-04-01T06:26:08.681Z,13.50
2019-04-01T06:28:35.513Z,13.70
2019-04-01T06:31:02.044Z,14.45
2019-04-01T06:33:28.681Z,14.03
2019-04-01T06:35:55.552Z,13.83
2019-04-01T06:38:22.517Z,13.13
2019-04-01T06:40:49.171Z,13.10
2019-04-01T06:43:15.602Z,13.28
2019-04-01T06:45:42.240Z,14.40
2019-04-01T06:48:08.731Z,14.45
2019-04-01T06:50:35.151Z,14.53
2019-04-01T06:53:01.682Z,15.38
2019-04-01T06:55:28.132Z,16.05
2019-04-01T06:57:54.769Z,15.63
2019-04-01T07:00:21.308Z,14.87
2019-04-01T07:02:47.962Z,16.15
2019-04-01T07:05:14.405Z,14.87
2019-04-01T07:07:40.972Z,15.90
2019-04-01T07:10:07.644Z,14.65
2019-04-01T07:12:34.271Z,15.35
2019-04-01T07:15:00.931Z,16.40
2019-04-01T07:17:27.992Z,17.17
2019-04-01T07:19:54.579Z,16.75
2019-04-01T07:22:21.136Z,16.52
2019-04-01T07:24:47.593Z,16.50
2019-04-01T07:27:14.147Z,16.90
2019-04-01T07:29:40.798Z,16.62
2019-04-01T07:32:07.556Z,15.23
2019-04-01T07:34:34.010Z,16.42
2019-04-01T07:37:00.862Z,15.32
2019-04-01T07:39:28.627Z,15.72
2019-04-01T07:41:55.151Z,14.18
2019-04-01T07:44:21.622Z,12.50
2019-04-01T07:46:48.278Z,13.20
2019-04-01T07:49:15.242Z,13.62
2019-04-01T07:51:41.806Z,15.20
2019-04-01T07:54:08.645Z,15.20
2019-04-01T07:56:35.183Z,15.35
2019-04-01T07:59:01.618Z,15.10
2019-04-01T08:01:28.171Z,14.87
2019-04-01T08:03:54.690Z,14.60
2019-04-01T08:06:21.242Z,13.43
2019-04-01T08:08:47.998Z,14.83
2019-04-01T08:11:14.534Z,14.70
2019-04-01T08:13:41.272Z,13.48
2019-04-01T08:16:07.922Z,14.15
2019-04-01T08:18:34.450Z,13.05
2019-04-01T08:21:00.991Z,13.50
2019-04-01T08:23:27.558Z,14.25
2019-04-01T08:25:53.981Z,13.55
2019-04-01T08:28:23.627Z,13.10
2019-04-01T08:30:48.760Z,12.60
2019-04-01T08:33:15.396Z,13.05
2019-04-01T08:35:41.932Z,13.13
2019-04-01T08:38:08.387Z,14.05
2019-04-01T08:40:35.002Z,13.18
2019-04-01T08:43:01.735Z,14.25
2019-04-01T08:45:28.288Z,14.18
2019-04-01T08:47:54.806Z,14.53
2019-04-01T08:50:21.438Z,14.53
2019-04-01T08:52:47.979Z,14.47
2019-04-01T08:55:14.654Z,13.78
2019-04-01T08:57:41.186Z,13.98
2019-04-01T09:00:08.359Z,14.45
2019-04-01T09:02:34.896Z,14.13
2019-04-01T09:05:01.340Z,14.50
2019-04-01T09:07:29.817Z,13.95
2019-04-01T09:09:56.379Z,13.93
2019-04-01T09:12:23.281Z,13.80
2019-04-01T09:14:51.273Z,13.83
2019-04-01T09:17:18.110Z,14.58
2019-04-01T09:19:44.584Z,14.23
2019-04-01T09:22:11.039Z,14.05
2019-04-01T09:24:37.453Z,14.98
2019-04-01T09:27:04.126Z,13.53
2019-04-01T09:29:30.686Z,19.95
2019-04-01T09:31:57.133Z,21.27
2019-04-01T09:34:23.608Z,16.40
2019-04-01T09:36:50.064Z,12.40
2019-04-01T09:39:16.477Z,12.15
2019-04-01T09:41:42.917Z,11.60
2019-04-01T09:44:09.356Z,12.03
2019-04-01T09:46:35.823Z,12.65
2019-04-01T09:49:02.493Z,11.25
2019-04-01T09:51:28.950Z,11.03
2019-04-01T09:53:55.379Z,9.95
2019-04-01T09:56:21.826Z,9.70
2019-04-01T09:58:48.393Z,9.53
2019-04-01T10:01:14.826Z,9.58
2019-04-01T10:03:41.254Z,8.78
2019-04-01T10:06:10.365Z,9.28
2019-04-01T10:08:42.650Z,8.70
2019-04-01T10:11:04.669Z,9.53
2019-04-01T10:13:31.216Z,8.20
2019-04-01T10:15:57.868Z,8.85
2019-04-01T10:18:24.306Z,8.70
2019-04-01T10:20:50.752Z,8.90
2019-04-01T10:23:17.415Z,8.80
2019-04-01T10:25:43.853Z,7.33
2019-04-01T10:28:10.620Z,7.80
2019-04-01T10:30:37.186Z,8.15
2019-04-01T10:33:04.239Z,7.55
2019-04-01T10:35:30.692Z,7.58
2019-04-01T10:37:57.131Z,7.80
2019-04-01T10:40:25.001Z,7.33
2019-04-01T10:42:51.650Z,7.50
2019-04-01T10:45:18.305Z,7.12
2019-04-01T10:47:44.826Z,7.78
2019-04-01T10:50:12.377Z,7.80
2019-04-01T10:52:38.820Z,7.75
2019-04-01T10:55:07.067Z,7.20
2019-04-01T10:57:34.808Z,7.33
2019-04-01T11:00:01.312Z,7.37
2019-04-01T11:02:28.047Z,7.50
2019-04-01T11:04:54.803Z,7.42
2019-04-01T11:07:21.422Z,7.42
2019-04-01T11:09:47.925Z,8.13
2019-04-01T11:12:14.405Z,7.53
2019-04-01T11:14:41.875Z,6.65
2019-04-01T11:17:08.494Z,6.90
2019-04-01T11:19:35.054Z,7.90
2019-04-01T11:22:01.473Z,7.45
2019-04-01T11:24:28.047Z,7.70
2019-04-01T11:26:54.486Z,7.45
2019-04-01T11:29:21.062Z,7.58
2019-04-01T11:31:47.500Z,7.35
2019-04-01T11:34:14.012Z,7.33
2019-04-01T11:36:40.449Z,7.35
2019-04-01T11:39:08.187Z,6.80
2019-04-01T11:41:34.646Z,6.83
2019-04-01T11:44:01.217Z,7.55
2019-04-01T11:46:27.731Z,7.10
2019-04-01T11:48:54.185Z,6.58
2019-04-01T11:51:32.005Z,6.33
2019-04-01T11:53:48.892Z,6.53
2019-04-01T11:56:15.538Z,7.67
2019-04-01T11:58:41.976Z,6.03
2019-04-01T12:01:09.783Z,6.40
2019-04-01T12:03:36.235Z,6.17
2019-04-01T12:06:02.944Z,6.67
2019-04-01T12:08:30.523Z,6.72
2019-04-01T12:10:57.280Z,6.33
2019-04-01T12:13:23.803Z,6.20
2019-04-01T12:15:50.266Z,6.28
2019-04-01T12:18:16.733Z,6.12
2019-04-01T12:20:43.217Z,6.60
2019-04-01T12:23:09.669Z,5.97
2019-04-01T12:25:36.429Z,6.60
2019-04-01T12:28:03.076Z,5.95
2019-04-01T12:30:30.625Z,5.78
2019-04-01T12:32:57.478Z,6.17
2019-04-01T12:35:24.012Z,5.58
2019-04-01T12:37:50.491Z,6.08
2019-04-01T12:40:17.057Z,5.55
2019-04-01T12:42:43.594Z,5.33
2019-04-01T12:45:10.660Z,5.58
2019-04-01T12:47:37.386Z,5.55
2019-04-01T12:50:04.818Z,6.00
2019-04-01T12:52:31.351Z,5.28
2019-04-01T12:55:00.797Z,5.20
2019-04-01T12:57:26.043Z,5.42
2019-04-01T12:59:53.457Z,5.70
2019-04-01T13:02:20.422Z,5.20
2019-04-01T13:04:50.933Z,4.62
2019-04-01T13:07:16.266Z,4.05
2019-04-01T13:09:42.750Z,4.87
2019-04-01T13:12:09.199Z,4.33
2019-04-01T13:14:35.660Z,4.50
2019-04-01T13:17:02.151Z,4.47
2019-04-01T13:19:28.579Z,4.47
2019-04-01T13:21:55.042Z,4.35
2019-04-01T13:24:21.502Z,4.30
2019-04-01T13:26:50.899Z,3.72
2019-04-01T13:29:16.533Z,4.60
2019-04-01T13:31:43.003Z,4.00
2019-04-01T13:34:09.432Z,3.62
2019-04-01T13:36:35.881Z,3.60
2019-04-01T13:39:04.961Z,4.62
2019-04-01T13:41:42.299Z,4.00
2019-04-01T13:44:00.750Z,4.35
2019-04-01T13:46:27.217Z,4.20
2019-04-01T13:48:57.938Z,3.90
2019-04-01T13:51:22.049Z,4.00
2019-04-01T13:53:48.499Z,4.40
2019-04-01T13:56:14.970Z,4.50
2019-04-01T13:58:41.438Z,4.28
2019-04-01T14:01:07.927Z,4.28
2019-04-01T14:03:34.371Z,3.60
2019-04-01T14:06:00.833Z,3.90
2019-04-01T14:08:27.296Z,3.85
2019-04-01T14:10:54.575Z,3.80
2019-04-01T14:13:21.202Z,4.00
2019-04-01T14:15:51.236Z,4.40
2019-04-01T14:18:16.034Z,4.00
2019-04-01T14:20:42.533Z,4.08
2019-04-01T14:23:09.016Z,3.95
2019-04-01T14:25:35.456Z,3.52
2019-04-01T14:28:02.029Z,3.55
2019-04-01T14:30:28.589Z,3.70
2019-04-01T14:32:55.069Z,3.90
2019-04-01T14:35:23.721Z,4.20
2019-04-01T14:37:49.819Z,4.05
2019-04-01T14:40:16.949Z,4.15
2019-04-01T14:42:46.189Z,4.20
2019-04-01T14:45:12.173Z,4.65
2019-04-01T14:47:55.647Z,3.92
2019-04-01T14:50:08.081Z,3.80
2019-04-01T14:52:35.914Z,3.60
2019-04-01T14:55:04.098Z,3.90
2019-04-01T14:57:30.584Z,4.05
2019-04-01T14:59:57.055Z,4.20
2019-04-01T15:02:23.565Z,4.50
2019-04-01T15:04:50.052Z,3.80
2019-04-01T15:07:18.270Z,3.67
2019-04-01T15:09:46.451Z,4.00
2019-04-01T15:12:13.291Z,4.00
2019-04-01T15:14:40.151Z,3.87
2019-04-01T15:17:06.624Z,3.52
2019-04-01T15:19:33.121Z,3.98
2019-04-01T15:21:59.847Z,4.20
2019-04-01T15:24:27.186Z,4.00
2019-04-01T15:26:54.429Z,4.00
2019-04-01T15:29:20.899Z,3.95
2019-04-01T15:31:47.349Z,3.87
2019-04-01T15:34:14.022Z,4.10
2019-04-01T15:36:40.469Z,4.12
2019-04-01T15:39:09.013Z,4.67
2019-04-01T15:41:35.663Z,4.90
2019-04-01T15:44:02.625Z,4.72
2019-04-01T15:46:29.166Z,4.80
2019-04-01T15:48:55.654Z,4.67
2019-04-01T15:51:22.107Z,4.33
2019-04-01T15:53:48.719Z,4.75
2019-04-01T15:56:15.270Z,5.20
2019-04-01T15:58:41.749Z,4.45
2019-04-01T16:01:08.379Z,4.85
2019-04-01T16:03:34.948Z,4.25
2019-04-01T16:06:03.022Z,4.10
2019-04-01T16:08:29.896Z,5.05
2019-04-01T16:10:56.447Z,4.67
2019-04-01T16:13:22.903Z,4.40
2019-04-01T16:15:49.333Z,4.60
2019-04-01T16:18:15.979Z,4.28
2019-04-01T16:20:43.092Z,5.92
2019-04-01T16:23:09.545Z,7.83
2019-04-01T16:25:37.719Z,6.83
2019-04-01T16:28:04.323Z,5.25
2019-04-01T16:30:30.916Z,5.58
2019-04-01T16:32:58.378Z,4.75
2019-04-01T16:35:24.972Z,5.20
2019-04-01T16:37:51.510Z,5.47
2019-04-01T16:40:18.422Z,5.08
2019-04-01T16:42:45.331Z,5.55
2019-04-01T16:45:13.389Z,5.85
2019-04-01T16:47:40.063Z,6.20
2019-04-01T16:50:07.368Z,5.67
2019-04-01T16:52:34.051Z,5.30
2019-04-01T16:55:03.519Z,6.00
2019-04-01T16:57:30.085Z,13.08
2019-04-01T16:59:58.950Z,12.03
2019-04-01T17:02:29.157Z,8.63
2019-04-01T17:04:55.913Z,44.40
2019-04-01T17:07:22.814Z,34.43
2019-04-01T17:09:52.457Z,16.97
2019-04-01T17:12:20.372Z,12.33
2019-04-01T17:14:46.829Z,30.48
2019-04-01T17:17:14.409Z,30.68
2019-04-01T17:19:40.972Z,33.55
2019-04-01T17:22:07.559Z,21.05
2019-04-01T17:24:34.065Z,70.87
2019-04-01T17:27:04.021Z,33.48
2019-04-01T17:29:31.915Z,11.50
2019-04-01T17:31:58.699Z,14.75
2019-04-01T17:34:25.254Z,8.43
2019-04-01T17:36:51.887Z,9.00
2019-04-01T17:39:18.488Z,9.00
2019-04-01T17:41:46.413Z,5.97
2019-04-01T17:44:14.022Z,6.00
2019-04-01T17:46:40.717Z,5.65
2019-04-01T17:49:07.176Z,5.47
2019-04-01T17:51:33.602Z,6.20
2019-04-01T17:54:01.148Z,5.80
2019-04-01T17:56:27.949Z,6.05
2019-04-01T17:58:54.557Z,5.35
2019-04-01T18:01:23.329Z,9.68
2019-04-01T18:03:49.823Z,47.98
2019-04-01T18:06:16.265Z,28.55
2019-04-01T18:08:42.743Z,9.33
2019-04-01T18:11:09.231Z,6.87
2019-04-01T18:13:35.787Z,6.22
2019-04-01T18:16:02.381Z,6.33
2019-04-01T18:18:29.945Z,7.35
2019-04-01T18:20:56.657Z,7.42
2019-04-01T18:23:23.134Z,8.88
2019-04-01T18:25:49.977Z,9.15
2019-04-01T18:28:16.987Z,11.25
2019-04-01T18:30:44.445Z,10.90
2019-04-01T18:33:11.020Z,17.02
2019-04-01T18:35:37.457Z,17.60
2019-04-01T18:38:04.142Z,19.50
2019-04-01T18:40:33.132Z,19.35
2019-04-01T18:42:59.946Z,21.85
2019-04-01T18:45:26.533Z,12.75
2019-04-01T18:47:53.117Z,9.50
2019-04-01T18:50:19.657Z,10.35
2019-04-01T18:52:46.322Z,10.95
2019-04-01T18:55:12.873Z,10.23
2019-04-01T18:57:39.409Z,13.48
2019-04-01T19:00:09.574Z,13.40
2019-04-01T19:02:36.179Z,12.53
2019-04-01T19:05:03.660Z,16.82
2019-04-01T19:07:30.169Z,16.02
2019-04-01T19:10:05.983Z,14.73
2019-04-01T19:12:25.082Z,12.23
2019-04-01T19:14:51.558Z,11.12
2019-04-01T19:17:18.038Z,16.70
2019-04-01T19:19:44.528Z,16.30
2019-04-01T19:22:11.010Z,15.83
2019-04-01T19:24:37.608Z,15.50
2019-04-01T19:27:04.162Z,17.62
2019-04-01T19:29:30.605Z,17.15
2019-04-01T19:31:57.173Z,16.02
2019-04-01T19:34:23.605Z,19.05
2019-04-01T19:36:50.044Z,14.28
2019-04-01T19:39:16.494Z,12.60
2019-04-01T19:41:43.040Z,13.83
2019-04-01T19:44:09.497Z,15.03
2019-04-01T19:46:35.970Z,14.87
2019-04-01T19:49:05.005Z,14.45
2019-04-01T19:51:30.762Z,14.90
2019-04-01T19:53:57.236Z,18.60
2019-04-01T19:56:23.648Z,25.92
2019-04-01T19:58:50.081Z,24.37
2019-04-01T20:01:16.558Z,23.57
2019-04-01T20:03:43.043Z,20.20
2019-04-01T20:06:09.723Z,19.40
2019-04-01T20:08:36.315Z,19.30
2019-04-01T20:11:03.109Z,16.15
2019-04-01T20:13:29.596Z,19.05
2019-04-01T20:15:56.068Z,18.30
2019-04-01T20:18:22.701Z,21.50
2019-04-01T20:20:49.313Z,15.00
2019-04-01T20:23:15.784Z,15.43
2019-04-01T20:25:43.542Z,15.93
2019-04-01T20:28:10.112Z,21.93
2019-04-01T20:30:38.095Z,19.98
2019-04-01T20:33:16.815Z,22.75
2019-04-01T20:35:34.628Z,23.75
2019-04-01T20:38:01.381Z,23.55
2019-04-01T20:40:27.963Z,23.52
2019-04-01T20:42:54.436Z,23.55
2019-04-01T20:45:21.117Z,23.87
2019-04-01T20:47:50.172Z,20.43
2019-04-01T20:50:16.626Z,63.70
2019-04-01T20:52:43.073Z,44.93
2019-04-01T20:55:09.675Z,39.40
2019-04-01T20:57:36.144Z,28.60
2019-04-01T21:00:04.899Z,28.07
2019-04-01T21:02:32.163Z,28.35
2019-04-01T21:04:59.417Z,25.55
2019-04-01T21:07:25.909Z,24.15
2019-04-01T21:09:52.341Z,23.67
2019-04-01T21:12:19.781Z,22.95
2019-04-01T21:14:46.236Z,23.98
2019-04-01T21:17:12.775Z,25.92
2019-04-01T21:19:39.247Z,23.38
2019-04-01T21:22:07.210Z,22.52
2019-04-01T21:24:34.470Z,17.02
2019-04-01T21:27:00.966Z,21.25
2019-04-01T21:29:27.429Z,20.82
2019-04-01T21:31:53.969Z,21.25
2019-04-01T21:34:20.519Z,19.07
2019-04-01T21:36:46.984Z,17.42
2019-04-01T21:39:14.700Z,19.42
2019-04-01T21:41:41.182Z,14.40
2019-04-01T21:44:07.663Z,17.45
2019-04-01T21:46:34.086Z,15.00
2019-04-01T21:49:00.552Z,18.65
2019-04-01T21:51:27.001Z,15.25
2019-04-01T21:53:53.457Z,17.42
2019-04-01T21:56:19.937Z,15.48
2019-04-01T21:58:46.399Z,13.85
2019-04-01T22:01:14.369Z,13.13
2019-04-01T22:03:42.146Z,15.40
2019-04-01T22:06:09.135Z,15.93
2019-04-01T22:08:36.154Z,14.53
2019-04-01T22:11:02.997Z,12.98
2019-04-01T22:13:29.570Z,14.45
2019-04-01T22:15:56.009Z,15.28
2019-04-01T22:18:22.472Z,16.20
2019-04-01T22:20:48.923Z,17.12
2019-04-01T22:23:15.410Z,18.85
2019-04-01T22:25:41.901Z,16.73
2019-04-01T22:28:08.360Z,16.45
2019-04-01T22:30:34.889Z,16.93
2019-04-01T22:33:01.345Z,17.50
2019-04-01T22:35:38.061Z,17.60
2019-04-01T22:37:56.158Z,18.23
2019-04-01T22:40:22.626Z,18.82
2019-04-01T22:42:49.187Z,17.55
2019-04-01T22:45:15.613Z,16.10
2019-04-01T22:47:42.070Z,19.00
2019-04-01T22:50:10.135Z,18.92
2019-04-01T22:52:36.754Z,15.72
2019-04-01T22:55:04.299Z,16.97
2019-04-01T22:57:30.761Z,16.95
2019-04-01T22:59:57.188Z,13.72
2019-04-01T23:02:23.654Z,15.15
2019-04-01T23:04:50.097Z,14.53
2019-04-01T23:07:16.549Z,14.95
2019-04-01T23:09:44.635Z,13.30
2019-04-01T23:12:11.090Z,15.50
2019-04-01T23:14:37.578Z,15.70
2019-04-01T23:17:04.052Z,13.60
2019-04-01T23:19:30.497Z,16.17
2019-04-01T23:21:56.933Z,15.18
2019-04-01T23:24:23.383Z,15.13
2019-04-01T23:26:49.844Z,14.35
2019-04-01T23:29:16.745Z,14.87
2019-04-01T23:31:43.211Z,13.68
2019-04-01T23:34:09.683Z,13.98
2019-04-01T23:36:36.108Z,12.53
2019-04-01T23:39:05.693Z,14.23
2019-04-01T23:41:32.126Z,12.60
2019-04-01T23:43:58.567Z,12.37
2019-04-01T23:46:25.147Z,12.70
2019-04-01T23:48:51.607Z,12.85
2019-04-01T23:51:19.048Z,12.73
2019-04-01T23:53:45.492Z,14.53
2019-04-01T23:56:11.952Z,13.95
2019-04-01T23:58:38.382Z,13.93
